Time;durP1;ratioP1;P1;durP2;ratioP2;P2;SDS_P1;SDS_P2;PMS_P1;PMS_P2;Temp;Humidity;BMP_temperature;BMP_pressure;BME280_temperature;BME280_humidity;BME280_pressure;Samples;Min_cycle;Max_cycle;Signal;HPM_P1;HPM_P2
2023/07/12 00:00:46;;;;;;;11.15;7.30;;;26.10;80.00;;;;;;5071625;28;20477;-76
2023/07/12 00:03:13;;;;;;;12.80;8.02;;;26.10;80.30;;;;;;5072253;28;20035;-76
2023/07/12 00:05:39;;;;;;;9.20;7.72;;;26.10;80.70;;;;;;5071933;28;20025;-76
2023/07/12 00:08:05;;;;;;;10.75;7.20;;;26.00;80.90;;;;;;5072282;28;20025;-76
2023/07/12 00:10:35;;;;;;;12.98;7.45;;;26.00;81.20;;;;;;5071809;28;20047;-76
2023/07/12 00:13:02;;;;;;;9.93;7.33;;;26.00;81.40;;;;;;5072131;28;20155;-76
2023/07/12 00:15:30;;;;;;;13.65;7.55;;;26.00;81.60;;;;;;5072215;28;20033;-76
2023/07/12 00:17:57;;;;;;;10.05;7.45;;;25.90;82.60;;;;;;5070509;28;20392;-76
2023/07/12 00:20:33;;;;;;;9.07;7.72;;;25.90;82.20;;;;;;5072152;28;20095;-76
2023/07/12 00:22:59;;;;;;;10.75;7.45;;;25.90;82.50;;;;;;5072290;28;20100;-76
2023/07/12 00:25:31;;;;;;;16.05;7.20;;;25.80;82.90;;;;;;5072071;28;20035;-76
2023/07/12 00:27:58;;;;;;;9.82;7.60;;;25.80;83.00;;;;;;5072164;28;20031;-76
2023/07/12 00:30:27;;;;;;;11.98;6.97;;;25.80;83.10;;;;;;5072090;28;20031;-75
2023/07/12 00:32:56;;;;;;;8.77;7.68;;;25.80;83.70;;;;;;5071316;28;20435;-76
2023/07/12 00:35:24;;;;;;;10.15;7.57;;;25.70;84.50;;;;;;5071953;28;20128;-76
2023/07/12 00:37:52;;;;;;;12.93;8.45;;;25.70;84.90;;;;;;5071615;28;20315;-76
2023/07/12 00:40:26;;;;;;;10.27;7.40;;;25.70;85.30;;;;;;5071637;28;20039;-76
2023/07/12 00:43:04;;;;;;;9.52;8.05;;;25.70;85.40;;;;;;5071401;28;20043;-76
2023/07/12 00:45:32;;;;;;;11.38;7.50;;;25.70;85.90;;;;;;5071679;28;20436;-75
2023/07/12 00:47:57;;;;;;;11.50;8.07;;;25.60;86.10;;;;;;5072017;28;20392;-75
2023/07/12 00:50:23;;;;;;;9.82;8.00;;;25.50;86.80;;;;;;5075117;28;20033;-76
2023/07/12 00:52:49;;;;;;;10.40;7.72;;;25.60;87.10;;;;;;5074731;28;20108;-76
2023/07/12 00:55:53;;;;;;;10.70;8.30;;;25.50;88.00;;;;;;5075627;28;20035;-76
2023/07/12 00:58:19;;;;;;;9.63;7.82;;;25.50;88.40;;;;;;5075001;28;20062;-76
2023/07/12 01:00:45;;;;;;;11.43;7.18;;;25.50;88.00;;;;;;5075199;28;20037;-76
2023/07/12 01:03:13;;;;;;;10.52;7.28;;;25.50;88.10;;;;;;5075287;28;20031;-76
2023/07/12 01:05:43;;;;;;;12.93;7.85;;;25.40;88.30;;;;;;5074821;28;20074;-76
2023/07/12 01:08:11;;;;;;;12.45;8.55;;;25.40;88.40;;;;;;5075330;28;20104;-76
2023/07/12 01:10:37;;;;;;;13.00;8.68;;;25.40;88.70;;;;;;5074514;28;20374;-74
2023/07/12 01:13:05;;;;;;;12.25;8.20;;;25.40;89.50;;;;;;5074767;28;20107;-75
2023/07/12 01:15:32;;;;;;;11.52;7.90;;;25.30;90.00;;;;;;5075083;28;20326;-75
2023/07/12 01:17:58;;;;;;;12.70;8.38;;;25.30;90.00;;;;;;5073307;28;20042;-75
2023/07/12 01:20:24;;;;;;;9.90;7.82;;;25.30;90.20;;;;;;5074846;28;20028;-74
2023/07/12 01:22:55;;;;;;;11.10;7.57;;;25.30;90.10;;;;;;5074538;28;20040;-74
2023/07/12 01:26:14;;;;;;;12.90;8.20;;;25.30;90.10;;;;;;5074349;28;20028;-74
2023/07/12 01:28:41;;;;;;;12.23;8.27;;;25.30;90.30;;;;;;5032099;28;20040;-76
2023/07/12 01:31:07;;;;;;;12.13;8.63;;;25.30;90.40;;;;;;5071614;28;20036;-76
2023/07/12 01:33:32;;;;;;;10.88;7.97;;;25.30;90.60;;;;;;5074397;28;20036;-75
2023/07/12 01:35:58;;;;;;;15.77;8.57;;;25.30;90.60;;;;;;5074324;28;20196;-75
2023/07/12 01:38:24;;;;;;;10.18;8.57;;;25.20;90.70;;;;;;5074708;28;20028;-74
2023/07/12 01:40:49;;;;;;;11.23;8.13;;;25.30;90.70;;;;;;5073828;28;20028;-75
2023/07/12 01:43:15;;;;;;;15.13;8.55;;;25.20;91.30;;;;;;5074819;28;20261;-74
2023/07/12 01:45:40;;;;;;;16.15;9.13;;;25.20;91.70;;;;;;5074158;28;20025;-74
2023/07/12 01:48:06;;;;;;;13.75;7.93;;;25.10;92.00;;;;;;5074100;28;20124;-75
2023/07/12 01:50:32;;;;;;;11.07;8.57;;;25.10;92.30;;;;;;5074633;28;20024;-74
2023/07/12 01:52:57;;;;;;;14.13;8.80;;;25.00;92.40;;;;;;5073971;28;20040;-74
2023/07/12 01:55:23;;;;;;;16.75;8.73;;;25.10;91.10;;;;;;5074319;28;20025;-74
2023/07/12 01:57:48;;;;;;;12.77;8.10;;;25.10;90.20;;;;;;5073622;28;20025;-74
2023/07/12 02:00:14;;;;;;;20.42;7.68;;;25.10;88.80;;;;;;5073473;28;20116;-75
2023/07/12 02:02:40;;;;;;;15.93;6.10;;;25.00;85.70;;;;;;5073541;28;20031;-75
2023/07/12 02:05:07;;;;;;;15.15;5.53;;;25.00;82.90;;;;;;5074129;28;20058;-75
2023/07/12 02:07:33;;;;;;;27.73;5.35;;;24.90;81.60;;;;;;5074114;28;20074;-75
2023/07/12 02:10:16;;;;;;;26.83;5.10;;;24.90;80.70;;;;;;5073914;28;20032;-75
2023/07/12 02:12:43;;;;;;;19.38;4.63;;;24.90;79.30;;;;;;5073469;28;20021;-75
2023/07/12 02:15:10;;;;;;;13.68;4.22;;;24.80;79.10;;;;;;5073845;28;20074;-74
2023/07/12 02:17:35;;;;;;;25.90;3.90;;;24.80;79.10;;;;;;5073845;28;20035;-74
2023/07/12 02:20:01;;;;;;;20.77;3.85;;;24.80;78.50;;;;;;5072081;28;20028;-75
2023/07/12 02:22:32;;;;;;;14.00;3.58;;;24.80;78.30;;;;;;5073630;28;20081;-74
2023/07/12 02:24:58;;;;;;;15.82;3.97;;;24.70;78.30;;;;;;5073367;28;20025;-74
2023/07/12 02:27:24;;;;;;;12.73;3.35;;;24.60;78.30;;;;;;5073878;28;20471;-74
2023/07/12 02:29:50;;;;;;;14.40;3.38;;;24.60;78.40;;;;;;5071894;28;20028;-75
2023/07/12 02:32:16;;;;;;;15.15;3.10;;;24.60;78.50;;;;;;5073426;28;20465;-74
2023/07/12 02:34:42;;;;;;;15.73;3.45;;;24.60;78.20;;;;;;5072768;28;20036;-73
2023/07/12 02:37:07;;;;;;;16.48;3.38;;;24.50;77.90;;;;;;5073450;28;20036;-75
2023/07/12 02:39:33;;;;;;;13.27;3.03;;;24.50;77.90;;;;;;5073201;28;20024;-75
2023/07/12 02:41:59;;;;;;;12.32;2.97;;;24.50;77.70;;;;;;5072614;28;20025;-75
2023/07/12 02:44:25;;;;;;;6.32;2.45;;;24.50;77.50;;;;;;5073222;28;20036;-75
2023/07/12 02:46:51;;;;;;;12.93;2.65;;;24.50;77.30;;;;;;5072577;28;20048;-75
2023/07/12 02:49:16;;;;;;;11.95;2.20;;;24.40;77.20;;;;;;5072914;28;20035;-75
2023/07/12 02:51:43;;;;;;;8.55;2.47;;;24.40;77.10;;;;;;5072740;28;20020;-74
2023/07/12 02:54:08;;;;;;;11.63;3.08;;;24.40;77.10;;;;;;5072804;28;20465;-74
2023/07/12 02:56:34;;;;;;;11.02;2.40;;;24.40;77.00;;;;;;5072879;28;20074;-75
2023/07/12 02:58:59;;;;;;;5.15;2.30;;;24.40;77.10;;;;;;5072607;28;20053;-75
2023/07/12 03:01:25;;;;;;;6.30;2.35;;;24.40;77.00;;;;;;5073303;28;20036;-74
2023/07/12 03:03:53;;;;;;;13.70;2.40;;;24.40;76.30;;;;;;5072578;28;20025;-74
2023/07/12 03:06:19;;;;;;;9.25;1.90;;;24.40;76.10;;;;;;5072837;28;20085;-74
2023/07/12 03:08:44;;;;;;;6.32;1.90;;;24.30;75.90;;;;;;5072246;28;20108;-75
2023/07/12 03:11:10;;;;;;;10.60;1.60;;;24.40;75.90;;;;;;5072874;28;20111;-76
2023/07/12 03:13:36;;;;;;;8.40;1.75;;;24.30;75.70;;;;;;5071336;28;20492;-76
2023/07/12 03:16:06;;;;;;;5.90;1.65;;;24.30;75.90;;;;;;5072075;28;20270;-75
2023/07/12 03:18:32;;;;;;;5.43;1.60;;;24.40;75.80;;;;;;5052769;28;20028;-76
2023/07/12 03:20:59;;;;;;;3.83;1.67;;;24.30;75.80;;;;;;5051093;28;20381;-74
2023/07/12 03:23:25;;;;;;;6.10;1.70;;;24.30;75.90;;;;;;5052764;28;20103;-76
2023/07/12 03:25:51;;;;;;;8.18;2.15;;;24.30;75.70;;;;;;5052018;28;20112;-76
2023/07/12 03:28:16;;;;;;;8.43;2.13;;;24.30;76.00;;;;;;5054207;28;20062;-75
2023/07/12 03:30:42;;;;;;;4.53;1.90;;;24.30;75.90;;;;;;5066360;28;20349;-75
2023/07/12 03:33:07;;;;;;;8.13;1.63;;;24.30;76.00;;;;;;5071975;28;20028;-76
2023/07/12 03:35:33;;;;;;;3.10;1.77;;;24.30;75.80;;;;;;5072707;28;20025;-76
2023/07/12 03:37:59;;;;;;;3.13;1.52;;;24.20;76.10;;;;;;5071903;28;20030;-76
2023/07/12 03:40:24;;;;;;;4.82;1.58;;;24.20;76.20;;;;;;5072538;28;20103;-76
2023/07/12 03:42:50;;;;;;;4.35;1.70;;;24.20;76.30;;;;;;5072193;28;20372;-75
2023/07/12 03:45:15;;;;;;;4.45;1.60;;;24.20;76.40;;;;;;5071351;28;20041;-75
2023/07/12 03:47:41;;;;;;;3.55;1.67;;;24.20;76.10;;;;;;5072617;28;20084;-76
2023/07/12 03:50:07;;;;;;;4.43;1.80;;;24.20;76.40;;;;;;5072098;28;20024;-75
2023/07/12 03:52:32;;;;;;;4.68;1.77;;;24.30;76.20;;;;;;5072446;28;20085;-76
2023/07/12 03:54:58;;;;;;;7.50;2.00;;;24.30;76.00;;;;;;5072053;28;20131;-75
2023/07/12 03:57:24;;;;;;;6.05;1.30;;;24.30;75.00;;;;;;5072147;28;20020;-76
2023/07/12 03:59:49;;;;;;;7.90;1.60;;;24.40;75.30;;;;;;5071979;28;20449;-75
2023/07/12 04:02:15;;;;;;;4.35;1.92;;;24.50;75.00;;;;;;5072322;28;20032;-76
2023/07/12 04:04:40;;;;;;;4.38;1.80;;;24.50;74.70;;;;;;5072296;28;20075;-76
2023/07/12 04:07:07;;;;;;;2.97;1.63;;;24.60;74.50;;;;;;5071643;28;20033;-75
2023/07/12 04:09:33;;;;;;;8.32;1.70;;;24.70;74.00;;;;;;5072339;28;20052;-76
2023/07/12 04:11:58;;;;;;;2.45;1.58;;;24.80;73.60;;;;;;5071810;28;20063;-75
2023/07/12 04:14:24;;;;;;;4.82;1.50;;;24.90;73.40;;;;;;5072394;28;20381;-76
2023/07/12 04:16:49;;;;;;;2.63;1.58;;;25.00;72.90;;;;;;5071885;28;20028;-75
2023/07/12 04:19:15;;;;;;;3.58;1.90;;;25.10;72.50;;;;;;5071947;28;20082;-76
2023/07/12 04:21:41;;;;;;;5.32;1.45;;;25.20;71.70;;;;;;5072269;28;20037;-76
2023/07/12 04:24:06;;;;;;;4.03;1.65;;;25.30;71.60;;;;;;5072807;28;20452;-76
2023/07/12 04:26:32;;;;;;;3.80;1.52;;;25.40;71.80;;;;;;5075682;28;20025;-76
2023/07/12 04:28:58;;;;;;;3.78;1.48;;;25.50;71.70;;;;;;5075187;28;20033;-76
2023/07/12 04:31:24;;;;;;;1.65;1.20;;;25.50;71.30;;;;;;5075820;28;20070;-75
2023/07/12 04:33:50;;;;;;;4.65;1.75;;;25.60;71.10;;;;;;5075240;28;20082;-75
2023/07/12 04:36:17;;;;;;;2.50;1.42;;;25.60;70.20;;;;;;5075877;28;20025;-75
2023/07/12 04:38:44;;;;;;;7.30;1.77;;;25.60;69.90;;;;;;5074285;28;20029;-75
2023/07/12 04:41:09;;;;;;;2.88;1.60;;;25.70;69.60;;;;;;5075358;28;20032;-75
2023/07/12 04:43:35;;;;;;;3.97;1.60;;;25.70;69.50;;;;;;5075660;28;20021;-76
2023/07/12 04:46:01;;;;;;;8.52;1.23;;;25.70;69.40;;;;;;5074960;28;20028;-75
2023/07/12 04:48:27;;;;;;;5.50;1.88;;;25.60;69.30;;;;;;5076039;28;20035;-75
2023/07/12 04:50:54;;;;;;;5.43;1.40;;;25.70;69.60;;;;;;5075070;28;20028;-74
2023/07/12 04:53:21;;;;;;;6.93;1.70;;;25.70;69.20;;;;;;5075644;28;20036;-75
2023/07/12 04:55:50;;;;;;;4.57;1.63;;;25.60;68.60;;;;;;5075156;28;20107;-76
2023/07/12 04:58:17;;;;;;;4.38;2.03;;;25.60;69.00;;;;;;5075318;28;20059;-76
2023/07/12 05:00:43;;;;;;;2.40;1.48;;;25.60;69.00;;;;;;5075592;28;20032;-76
2023/07/12 05:03:09;;;;;;;7.13;1.50;;;25.60;69.00;;;;;;5074887;28;20031;-76
2023/07/12 05:05:37;;;;;;;9.77;1.90;;;25.60;69.10;;;;;;5074907;28;20020;-75
2023/07/12 05:08:04;;;;;;;2.75;1.60;;;25.60;69.40;;;;;;5073208;28;20358;-75
2023/07/12 05:10:30;;;;;;;4.35;1.60;;;25.50;68.90;;;;;;5075282;28;20406;-75
2023/07/12 05:12:56;;;;;;;5.40;1.90;;;25.50;69.10;;;;;;5074368;28;20043;-74
2023/07/12 05:15:21;;;;;;;7.00;1.55;;;25.50;69.00;;;;;;5074836;28;20040;-74
2023/07/12 05:17:47;;;;;;;3.90;1.50;;;25.50;68.70;;;;;;5075089;28;20035;-74
2023/07/12 05:20:14;;;;;;;4.95;1.75;;;25.50;68.70;;;;;;5074612;28;20063;-75
2023/07/12 05:22:40;;;;;;;3.58;1.52;;;25.50;69.10;;;;;;5074936;28;20065;-74
2023/07/12 05:25:06;;;;;;;6.30;1.70;;;25.50;68.80;;;;;;5073869;28;20028;-74
2023/07/12 05:27:32;;;;;;;2.80;1.60;;;25.50;68.60;;;;;;5074517;28;20075;-75
2023/07/12 05:29:58;;;;;;;5.10;1.58;;;25.60;68.70;;;;;;5074452;28;20067;-75
2023/07/12 05:32:23;;;;;;;4.35;1.52;;;25.60;69.30;;;;;;5074703;28;20492;-74
2023/07/12 05:34:49;;;;;;;5.57;1.90;;;25.70;69.30;;;;;;5074492;28;20032;-73
2023/07/12 05:37:15;;;;;;;3.65;1.80;;;25.80;69.40;;;;;;5074282;28;20110;-75
2023/07/12 05:39:40;;;;;;;3.35;1.83;;;25.90;69.50;;;;;;5074608;28;20036;-76
2023/07/12 05:42:08;;;;;;;5.47;2.00;;;26.10;68.90;;;;;;5074166;28;20063;-78
2023/07/12 05:44:34;;;;;;;2.65;1.50;;;26.30;68.10;;;;;;5074303;28;20029;-76
2023/07/12 05:46:59;;;;;;;7.80;2.20;;;26.60;67.70;;;;;;5074288;28;20045;-76
2023/07/12 05:49:25;;;;;;;7.13;1.52;;;26.90;66.70;;;;;;5074211;28;20025;-75
2023/07/12 05:51:51;;;;;;;5.00;1.83;;;27.40;65.50;;;;;;5074188;28;20039;-75
2023/07/12 05:54:17;;;;;;;7.80;1.77;;;27.80;64.80;;;;;;5073877;28;20142;-74
2023/07/12 05:56:42;;;;;;;6.40;1.77;;;28.40;62.70;;;;;;5074188;28;20028;-77
2023/07/12 05:59:09;;;;;;;4.57;1.90;;;28.90;61.60;;;;;;5073466;28;20031;-74
2023/07/12 06:01:35;;;;;;;4.22;2.00;;;29.40;60.40;;;;;;5074242;28;20033;-75
2023/07/12 06:04:00;;;;;;;3.47;1.60;;;30.10;59.00;;;;;;5073422;28;20025;-74
2023/07/12 06:06:26;;;;;;;5.38;2.03;;;30.80;57.30;;;;;;5073052;28;20040;-76
2023/07/12 06:08:52;;;;;;;6.70;1.92;;;31.40;55.80;;;;;;5074410;28;20039;-75
2023/07/12 06:11:17;;;;;;;9.85;1.63;;;32.20;53.60;;;;;;5073344;28;20491;-75
2023/07/12 06:13:43;;;;;;;5.47;1.65;;;32.70;52.00;;;;;;5072679;28;20036;-75
2023/07/12 06:16:09;;;;;;;9.10;1.77;;;33.20;50.30;;;;;;5073478;28;20416;-77
2023/07/12 06:18:34;;;;;;;5.82;1.98;;;33.90;49.40;;;;;;5074063;28;20472;-76
2023/07/12 06:21:02;;;;;;;4.25;1.70;;;34.40;49.20;;;;;;5073256;28;20020;-77
2023/07/12 06:23:29;;;;;;;3.22;1.50;;;34.90;46.60;;;;;;5073235;28;20115;-77
2023/07/12 06:25:59;;;;;;;5.38;1.40;;;35.20;46.30;;;;;;5073692;28;20081;-77
2023/07/12 06:28:26;;;;;;;4.72;1.88;;;35.60;44.40;;;;;;5073784;28;20028;-77
2023/07/12 06:30:52;;;;;;;6.95;1.70;;;36.00;44.00;;;;;;5073611;28;20029;-74
2023/07/12 06:33:18;;;;;;;2.42;1.10;;;35.50;43.90;;;;;;5072868;28;20036;-75
2023/07/12 06:35:44;;;;;;;8.45;1.95;;;34.80;44.70;;;;;;5073509;28;20032;-76
2023/07/12 06:38:10;;;;;;;5.30;1.60;;;33.90;45.40;;;;;;5073016;28;20020;-76
2023/07/12 06:40:35;;;;;;;5.63;1.92;;;33.20;46.60;;;;;;5073729;28;20040;-76
2023/07/12 06:43:01;;;;;;;8.25;1.75;;;32.70;47.50;;;;;;5072967;28;20403;-75
2023/07/12 06:45:26;;;;;;;6.03;1.95;;;32.00;48.60;;;;;;5073182;28;20039;-76
2023/07/12 06:47:52;;;;;;;5.85;1.80;;;31.50;50.10;;;;;;5072765;28;20082;-76
2023/07/12 06:50:18;;;;;;;4.30;1.73;;;30.80;51.30;;;;;;5072810;28;20039;-76
2023/07/12 06:52:43;;;;;;;5.00;1.73;;;30.50;53.10;;;;;;5073044;28;20115;-76
2023/07/12 06:55:09;;;;;;;4.45;1.58;;;31.40;52.80;;;;;;5072512;28;20029;-76
2023/07/12 06:57:35;;;;;;;3.70;1.67;;;31.80;49.90;;;;;;5071769;28;20021;-76
2023/07/12 07:00:05;;;;;;;4.80;2.00;;;32.20;49.30;;;;;;5072686;28;20074;-75
2023/07/12 07:02:31;;;;;;;4.32;1.38;;;33.20;48.90;;;;;;5071789;28;20032;-76
2023/07/12 07:04:56;;;;;;;3.20;1.58;;;33.80;46.80;;;;;;5072695;28;20374;-76
2023/07/12 07:07:22;;;;;;;3.85;1.63;;;33.50;46.10;;;;;;5072578;28;20111;-76
2023/07/12 07:09:48;;;;;;;2.13;1.48;;;33.10;46.90;;;;;;5072334;28;20024;-77
2023/07/12 07:12:13;;;;;;;4.35;1.98;;;32.90;47.30;;;;;;5072466;28;20422;-76
2023/07/12 07:14:39;;;;;;;4.38;1.80;;;32.60;48.30;;;;;;5072887;28;20037;-77
2023/07/12 07:17:06;;;;;;;3.72;1.42;;;32.30;47.80;;;;;;5072742;28;20033;-74
2023/07/12 07:19:32;;;;;;;4.63;1.55;;;32.00;48.60;;;;;;5072512;28;20085;-75
2023/07/12 07:21:58;;;;;;;5.18;1.40;;;32.10;50.10;;;;;;5071216;28;20024;-75
2023/07/12 07:24:23;;;;;;;6.20;1.88;;;32.30;48.50;;;;;;5072308;28;20484;-75
2023/07/12 07:26:49;;;;;;;4.03;1.60;;;33.10;48.50;;;;;;5072700;28;20050;-75
2023/07/12 07:29:15;;;;;;;2.83;1.33;;;34.00;47.30;;;;;;5072326;28;20021;-75
2023/07/12 07:31:40;;;;;;;4.50;1.35;;;34.70;44.80;;;;;;5072553;28;20029;-75
2023/07/12 07:34:06;;;;;;;4.88;1.50;;;35.20;43.90;;;;;;5072270;28;20491;-74
2023/07/12 07:36:31;;;;;;;6.63;1.60;;;35.90;43.30;;;;;;5070991;28;20024;-74
2023/07/12 07:38:57;;;;;;;7.95;1.75;;;36.50;42.30;;;;;;5072599;28;20017;-74
2023/07/12 07:41:23;;;;;;;3.83;1.48;;;37.30;41.30;;;;;;5074852;28;20029;-74
2023/07/12 07:43:49;;;;;;;2.78;1.58;;;37.70;40.30;;;;;;5076141;28;20036;-75
2023/07/12 07:46:15;;;;;;;8.02;1.45;;;38.40;40.40;;;;;;5072722;28;20461;-75
2023/07/12 07:48:42;;;;;;;4.07;1.67;;;38.80;39.10;;;;;;5072385;28;20111;-75
2023/07/12 07:51:09;;;;;;;9.55;1.95;;;39.10;38.60;;;;;;5071891;28;20063;-75
2023/07/12 07:53:34;;;;;;;6.78;3.00;;;39.30;39.20;;;;;;5072505;28;20037;-75
2023/07/12 07:56:00;;;;;;;9.88;1.92;;;39.40;38.30;;;;;;5072388;28;20140;-75
2023/07/12 07:58:26;;;;;;;8.70;2.03;;;39.40;38.40;;;;;;5071909;28;20112;-75
2023/07/12 08:00:52;;;;;;;7.18;1.90;;;39.30;38.60;;;;;;5076389;28;20031;-75
2023/07/12 08:03:18;;;;;;;5.63;1.70;;;39.50;38.60;;;;;;5075640;28;20473;-75
2023/07/12 08:05:43;;;;;;;6.38;2.13;;;39.90;38.30;;;;;;5076291;28;20056;-75
2023/07/12 08:08:09;;;;;;;7.43;2.05;;;40.10;37.30;;;;;;5075749;28;20200;-75
2023/07/12 08:10:35;;;;;;;4.10;1.92;;;40.10;37.40;;;;;;5076422;28;20028;-75
2023/07/12 08:13:01;;;;;;;4.28;1.65;;;40.20;38.00;;;;;;5076166;28;20112;-75
2023/07/12 08:15:27;;;;;;;6.43;1.77;;;40.80;36.40;;;;;;5075576;28;20461;-76
2023/07/12 08:17:53;;;;;;;5.93;2.05;;;40.80;35.40;;;;;;5074918;28;20024;-76
2023/07/12 08:20:19;;;;;;;4.10;1.80;;;40.40;35.20;;;;;;5075750;28;20036;-76
2023/07/12 08:22:45;;;;;;;5.63;1.60;;;40.50;36.10;;;;;;5076128;28;20020;-74
2023/07/12 08:25:11;;;;;;;7.05;2.10;;;40.70;35.80;;;;;;5075649;28;20058;-76
2023/07/12 08:27:37;;;;;;;7.22;2.28;;;40.30;35.50;;;;;;5075896;28;20427;-75
2023/07/12 08:30:04;;;;;;;7.55;2.22;;;40.30;36.30;;;;;;5075824;28;20059;-75
2023/07/12 08:32:33;;;;;;;7.93;2.70;;;40.30;37.40;;;;;;5075483;28;20111;-75
2023/07/12 08:34:59;;;;;;;7.22;2.72;;;40.20;36.60;;;;;;5075885;28;20050;-75
2023/07/12 08:37:25;;;;;;;6.00;2.03;;;39.80;36.90;;;;;;5075462;28;20466;-75
2023/07/12 08:39:51;;;;;;;8.88;2.58;;;39.60;36.80;;;;;;5075557;28;20111;-75
2023/07/12 08:42:23;;;;;;;6.45;2.05;;;38.80;37.20;;;;;;5075348;28;20103;-76
2023/07/12 08:44:49;;;;;;;11.68;2.40;;;38.20;37.90;;;;;;5075807;28;20021;-75
2023/07/12 08:47:30;;;;;;;8.48;2.72;;;38.00;39.00;;;;;;5075265;28;20079;-74
2023/07/12 08:49:56;;;;;;;5.25;2.38;;;37.40;38.80;;;;;;5075660;28;20055;-75
2023/07/12 08:52:32;;;;;;;9.25;2.78;;;37.20;39.20;;;;;;5075060;28;20028;-75
2023/07/12 08:55:01;;;;;;;8.98;2.75;;;36.80;39.40;;;;;;5075632;28;20036;-75
2023/07/12 08:57:29;;;;;;;7.78;2.55;;;36.70;40.40;;;;;;5075316;28;20025;-73
2023/07/12 08:59:57;;;;;;;9.73;2.75;;;36.40;41.30;;;;;;5075349;28;20036;-74
2023/07/12 09:02:24;;;;;;;7.55;2.88;;;36.40;41.80;;;;;;5074604;28;20035;-74
2023/07/12 09:04:51;;;;;;;6.05;2.97;;;36.20;42.00;;;;;;5075165;28;20035;-74
2023/07/12 09:07:36;;;;;;;11.35;2.78;;;36.10;41.30;;;;;;5074697;28;20035;-73
2023/07/12 09:10:02;;;;;;;9.18;3.05;;;35.60;41.50;;;;;;5074636;28;20032;-74
2023/07/12 09:12:31;;;;;;;9.90;2.67;;;35.10;42.40;;;;;;5074635;28;20087;-74
2023/07/12 09:15:07;;;;;;;5.05;2.53;;;34.80;42.70;;;;;;5075057;28;20056;-74
2023/07/12 09:17:39;;;;;;;9.18;3.03;;;34.70;43.60;;;;;;5074773;28;20028;-74
2023/07/12 09:20:25;;;;;;;9.18;2.92;;;34.40;43.30;;;;;;5074800;28;20017;-75
2023/07/12 09:22:53;;;;;;;6.78;2.97;;;34.30;44.00;;;;;;5073224;28;20028;-74
2023/07/12 09:25:22;;;;;;;3.58;2.88;;;34.40;44.50;;;;;;5074389;28;20465;-73
2023/07/12 09:27:48;;;;;;;8.50;2.83;;;34.50;44.90;;;;;;5073749;28;20385;-75
2023/07/12 09:30:21;;;;;;;13.48;3.50;;;34.50;44.50;;;;;;5074499;28;20021;-75
2023/07/12 09:32:49;;;;;;;11.25;3.72;;;34.60;44.90;;;;;;5073545;28;20028;-75
2023/07/12 09:35:40;;;;;;;7.20;3.58;;;34.30;44.60;;;;;;5074331;28;20060;-75
2023/07/12 09:38:23;;;;;;;10.05;3.28;;;34.10;45.50;;;;;;5074632;28;20031;-74
2023/07/12 09:40:51;;;;;;;10.55;3.92;;;34.00;45.20;;;;;;5074623;28;20103;-75
2023/07/12 09:43:18;;;;;;;6.93;3.67;;;33.80;46.00;;;;;;5073969;28;20111;-75
2023/07/12 09:46:04;;;;;;;11.90;3.92;;;33.80;46.40;;;;;;5074540;28;20017;-75
2023/07/12 09:48:52;;;;;;;11.27;3.85;;;33.80;46.30;;;;;;5073876;28;20036;-74
2023/07/12 09:51:36;;;;;;;8.05;3.58;;;33.70;46.50;;;;;;5073980;28;20028;-74
2023/07/12 09:54:13;;;;;;;13.45;3.50;;;33.80;46.10;;;;;;5074195;28;20424;-75
2023/07/12 09:56:41;;;;;;;8.70;3.40;;;33.60;46.20;;;;;;5074346;28;20029;-75
2023/07/12 09:59:25;;;;;;;9.57;3.83;;;33.50;46.60;;;;;;5074160;28;20078;-75
2023/07/12 10:02:00;;;;;;;9.30;3.75;;;33.40;46.70;;;;;;5074162;28;20552;-74
2023/07/12 10:04:44;;;;;;;9.57;3.90;;;33.30;46.90;;;;;;5073634;28;20052;-75
2023/07/12 10:07:24;;;;;;;7.78;3.17;;;33.20;47.50;;;;;;5074041;28;20419;-75
2023/07/12 10:09:51;;;;;;;12.15;3.90;;;33.30;47.40;;;;;;5073794;28;20469;-75
2023/07/12 10:12:27;;;;;;;8.20;3.55;;;33.40;46.90;;;;;;5073405;28;20097;-75
2023/07/12 10:14:54;;;;;;;6.13;3.45;;;33.40;46.80;;;;;;5073844;28;20043;-75
2023/07/12 10:17:37;;;;;;;8.07;3.63;;;33.50;46.90;;;;;;5071725;28;20017;-74
2023/07/12 10:20:04;;;;;;;9.45;3.50;;;33.40;46.70;;;;;;5073845;28;20037;-75
2023/07/12 10:22:38;;;;;;;9.75;3.25;;;33.50;46.80;;;;;;5072323;28;20036;-75
2023/07/12 10:25:22;;;;;;;4.97;3.05;;;33.70;46.80;;;;;;5073709;28;20453;-74
2023/07/12 10:28:10;;;;;;;7.72;3.53;;;33.80;46.40;;;;;;5073456;28;20052;-75
2023/07/12 10:30:37;;;;;;;10.27;3.30;;;33.90;45.40;;;;;;5071930;28;20064;-74
2023/07/12 10:33:23;;;;;;;9.25;3.38;;;33.80;45.90;;;;;;5073213;28;20021;-74
2023/07/12 10:35:56;;;;;;;6.38;2.92;;;33.90;46.50;;;;;;5073339;28;20029;-74
2023/07/12 10:38:22;;;;;;;4.20;1.98;;;34.00;45.20;;;;;;5073036;28;20032;-75
2023/07/12 10:40:56;;;;;;;3.92;1.52;;;34.10;45.00;;;;;;5073212;28;20028;-74
2023/07/12 10:43:37;;;;;;;3.75;1.33;;;34.10;41.90;;;;;;5072817;28;20031;-74
2023/07/12 10:46:10;;;;;;;6.43;1.50;;;34.10;42.60;;;;;;5073094;28;20550;-74
2023/07/12 10:48:40;;;;;;;4.60;1.42;;;34.10;42.30;;;;;;5072865;28;20236;-74
2023/07/12 10:51:16;;;;;;;2.03;1.30;;;33.90;42.10;;;;;;5073110;28;20148;-74
2023/07/12 10:53:53;;;;;;;6.78;1.92;;;34.00;41.70;;;;;;5073300;28;20024;-75
2023/07/12 10:56:53;;;;;;;5.00;1.70;;;33.90;41.40;;;;;;5072748;28;20059;-74
2023/07/12 10:59:31;;;;;;;4.05;1.30;;;33.90;41.70;;;;;;5064963;28;20397;-74
2023/07/12 11:02:26;;;;;;;7.00;1.52;;;33.90;41.70;;;;;;5073050;28;20040;-75
2023/07/12 11:04:52;;;;;;;5.65;1.63;;;34.00;41.10;;;;;;5064581;28;20059;-75
2023/07/12 11:07:17;;;;;;;3.85;1.33;;;33.90;41.30;;;;;;5072675;28;20397;-74
2023/07/12 11:09:45;;;;;;;3.83;1.52;;;34.00;40.90;;;;;;5073011;28;20043;-74
2023/07/12 11:12:31;;;;;;;2.30;1.20;;;33.90;40.60;;;;;;5072975;28;20119;-75
2023/07/12 11:15:08;;;;;;;3.78;1.42;;;33.90;41.40;;;;;;5072796;28;20042;-74
2023/07/12 11:18:03;;;;;;;4.10;1.25;;;33.80;39.70;;;;;;5072557;28;20029;-74
2023/07/12 11:20:35;;;;;;;4.65;1.25;;;33.60;39.60;;;;;;5072774;28;20020;-75
2023/07/12 11:23:07;;;;;;;3.67;1.50;;;33.60;40.20;;;;;;5072419;28;20074;-75
2023/07/12 11:25:48;;;;;;;4.30;1.48;;;33.70;40.20;;;;;;5071796;28;20500;-75
2023/07/12 11:28:22;;;;;;;3.85;1.80;;;33.70;40.60;;;;;;5073118;28;20429;-75
2023/07/12 11:31:13;;;;;;;2.53;1.67;;;33.70;40.60;;;;;;5072831;28;20031;-75
2023/07/12 11:33:39;;;;;;;;;;;33.70;40.10;;;;;;5072593;28;20067;-75
2023/07/12 11:36:09;;;;;;;2.92;1.50;;;33.80;40.20;;;;;;5072521;28;19943;-76
2023/07/12 11:38:37;;;;;;;3.03;1.55;;;33.80;41.10;;;;;;5072263;28;20028;-75
2023/07/12 11:41:06;;;;;;;2.75;1.58;;;33.70;40.30;;;;;;5072442;28;20036;-75
2023/07/12 11:43:37;;;;;;;4.72;2.00;;;33.60;40.40;;;;;;5071965;28;20434;-75
2023/07/12 11:46:15;;;;;;;2.92;1.30;;;33.40;39.90;;;;;;5072383;28;20025;-75
2023/07/12 11:48:44;;;;;;;6.93;1.42;;;33.30;40.50;;;;;;5072040;28;20595;-76
2023/07/12 11:51:20;;;;;;;3.47;1.85;;;33.30;40.70;;;;;;5072745;28;20021;-75
2023/07/12 11:53:55;;;;;;;5.50;1.50;;;33.30;40.60;;;;;;5072872;28;20028;-75
2023/07/12 11:56:21;;;;;;;3.33;1.70;;;33.40;40.70;;;;;;5072224;28;20366;-76
2023/07/12 11:58:46;;;;;;;4.38;1.83;;;33.30;40.90;;;;;;5072251;28;20055;-75
2023/07/12 12:01:15;;;;;;;6.80;1.73;;;33.20;41.10;;;;;;5072218;28;20024;-75
2023/07/12 12:03:40;;;;;;;5.55;1.85;;;33.10;41.20;;;;;;5071936;28;20051;-75
2023/07/12 12:06:09;;;;;;;10.23;1.90;;;33.10;40.70;;;;;;5072333;28;20029;-75
2023/07/12 12:08:35;;;;;;;7.18;1.85;;;32.90;41.40;;;;;;5072012;28;20071;-75
2023/07/12 12:11:00;;;;;;;3.50;1.60;;;32.80;40.80;;;;;;5072015;28;20052;-75
2023/07/12 12:13:30;;;;;;;5.38;2.33;;;32.80;41.00;;;;;;5072044;28;20039;-75
2023/07/12 12:16:04;;;;;;;4.10;2.00;;;32.80;40.80;;;;;;5072178;28;20111;-75
2023/07/12 12:18:30;;;;;;;7.68;1.67;;;32.70;41.00;;;;;;5071958;28;20071;-74
2023/07/12 12:21:15;;;;;;;3.55;1.42;;;32.70;42.40;;;;;;5072185;28;20081;-74
2023/07/12 12:23:42;;;;;;;8.20;2.17;;;32.70;42.90;;;;;;5071649;28;20035;-75
2023/07/12 12:26:23;;;;;;;6.25;1.77;;;32.60;42.00;;;;;;5072022;28;20040;-76
2023/07/12 12:28:55;;;;;;;4.35;1.90;;;32.50;42.70;;;;;;5071841;28;20067;-75
2023/07/12 12:31:23;;;;;;;8.48;2.25;;;32.50;43.20;;;;;;5071958;28;20036;-75
2023/07/12 12:33:57;;;;;;;4.07;1.83;;;32.60;43.50;;;;;;5071696;28;20458;-75
2023/07/12 12:36:26;;;;;;;6.15;2.10;;;32.50;43.30;;;;;;5072222;28;20031;-75
2023/07/12 12:39:08;;;;;;;5.72;1.80;;;32.50;44.10;;;;;;5071813;28;20025;-75
2023/07/12 12:41:39;;;;;;;5.38;2.22;;;32.50;43.70;;;;;;5071442;28;20431;-76
2023/07/12 12:44:12;;;;;;;6.20;1.77;;;32.40;43.40;;;;;;5072407;28;20020;-76
2023/07/12 12:46:40;;;;;;;7.53;2.05;;;32.40;43.90;;;;;;5073536;28;20045;-76
2023/07/12 12:49:36;;;;;;;4.30;1.98;;;32.40;43.80;;;;;;5075708;28;20027;-75
2023/07/12 12:52:23;;;;;;;6.90;2.50;;;32.50;44.10;;;;;;5062820;28;20032;-76
2023/07/12 12:54:49;;;;;;;4.80;1.75;;;32.50;43.80;;;;;;5075080;28;20455;-76